sensor_id;sensor_type;location;lat;lon;timestamp;P1;durP1;ratioP1;P2;durP2;ratioP2
33150;SDS011;19508;42.578;23.416;2023-03-01T00:00:26;12.82;;;7.45;;
33150;SDS011;19508;42.578;23.416;2023-03-01T00:02:51;6.60;;;4.18;;
33150;SDS011;19508;42.578;23.416;2023-03-01T00:05:16;17.90;;;9.88;;
33150;SDS011;19508;42.578;23.416;2023-03-01T00:07:42;8.60;;;5.10;;
33150;SDS011;19508;42.578;23.416;2023-03-01T00:10:08;17.17;;;5.57;;
33150;SDS011;19508;42.578;23.416;2023-03-01T00:12:34;5.32;;;3.15;;
33150;SDS011;19508;42.578;23.416;2023-03-01T00:14:59;4.38;;;2.80;;
33150;SDS011;19508;42.578;23.416;2023-03-01T00:17:24;3.35;;;2.40;;
33150;SDS011;19508;42.578;23.416;2023-03-01T00:19:50;2.65;;;1.85;;
33150;SDS011;19508;42.578;23.416;2023-03-01T00:22:15;1.83;;;1.50;;
33150;SDS011;19508;42.578;23.416;2023-03-01T00:24:40;3.38;;;1.70;;
33150;SDS011;19508;42.578;23.416;2023-03-01T00:27:06;1.55;;;1.45;;
33150;SDS011;19508;42.578;23.416;2023-03-01T00:29:32;1.65;;;1.55;;
33150;SDS011;19508;42.578;23.416;2023-03-01T00:31:58;1.48;;;1.38;;
33150;SDS011;19508;42.578;23.416;2023-03-01T00:34:23;2.85;;;1.30;;
33150;SDS011;19508;42.578;23.416;2023-03-01T00:36:48;2.03;;;1.50;;
33150;SDS011;19508;42.578;23.416;2023-03-01T00:39:14;1.92;;;1.30;;
33150;SDS011;19508;42.578;23.416;2023-03-01T00:41:40;2.30;;;1.50;;
33150;SDS011;19508;42.578;23.416;2023-03-01T00:44:06;2.45;;;1.30;;
33150;SDS011;19508;42.578;23.416;2023-03-01T00:46:32;1.30;;;1.20;;
33150;SDS011;19508;42.578;23.416;2023-03-01T00:48:57;0.98;;;0.90;;
33150;SDS011;19508;42.578;23.416;2023-03-01T00:51:24;1.20;;;1.10;;
33150;SDS011;19508;42.578;23.416;2023-03-01T00:53:52;1.00;;;1.00;;
33150;SDS011;19508;42.578;23.416;2023-03-01T00:56:19;1.10;;;1.00;;
33150;SDS011;19508;42.578;23.416;2023-03-01T00:58:45;1.40;;;1.30;;
33150;SDS011;19508;42.578;23.416;2023-03-01T01:01:11;0.88;;;0.85;;
33150;SDS011;19508;42.578;23.416;2023-03-01T01:06:20;1.10;;;1.05;;
33150;SDS011;19508;42.578;23.416;2023-03-01T01:08:51;1.40;;;1.13;;
33150;SDS011;19508;42.578;23.416;2023-03-01T01:11:18;1.17;;;1.08;;
33150;SDS011;19508;42.578;23.416;2023-03-01T01:13:44;1.08;;;1.00;;
33150;SDS011;19508;42.578;23.416;2023-03-01T01:16:11;1.20;;;1.10;;
33150;SDS011;19508;42.578;23.416;2023-03-01T01:18:37;1.33;;;1.23;;
33150;SDS011;19508;42.578;23.416;2023-03-01T01:21:04;0.88;;;0.88;;
33150;SDS011;19508;42.578;23.416;2023-03-01T01:23:33;0.83;;;0.83;;
33150;SDS011;19508;42.578;23.416;2023-03-01T01:26:03;1.27;;;1.08;;
33150;SDS011;19508;42.578;23.416;2023-03-01T01:28:30;0.90;;;0.90;;
33150;SDS011;19508;42.578;23.416;2023-03-01T01:30:55;0.90;;;0.90;;
33150;SDS011;19508;42.578;23.416;2023-03-01T01:33:21;1.00;;;1.00;;
33150;SDS011;19508;42.578;23.416;2023-03-01T01:35:46;1.95;;;1.40;;
33150;SDS011;19508;42.578;23.416;2023-03-01T01:38:11;1.20;;;1.10;;
33150;SDS011;19508;42.578;23.416;2023-03-01T01:40:42;1.00;;;1.00;;
33150;SDS011;19508;42.578;23.416;2023-03-01T01:43:14;1.40;;;1.30;;
33150;SDS011;19508;42.578;23.416;2023-03-01T01:46:07;2.13;;;1.30;;
33150;SDS011;19508;42.578;23.416;2023-03-01T01:48:48;1.42;;;1.30;;
33150;SDS011;19508;42.578;23.416;2023-03-01T01:51:19;2.28;;;1.50;;
33150;SDS011;19508;42.578;23.416;2023-03-01T01:53:51;4.05;;;1.80;;
33150;SDS011;19508;42.578;23.416;2023-03-01T01:56:21;1.92;;;1.58;;
33150;SDS011;19508;42.578;23.416;2023-03-01T01:58:51;2.05;;;1.83;;
33150;SDS011;19508;42.578;23.416;2023-03-01T02:01:17;1.80;;;1.50;;
33150;SDS011;19508;42.578;23.416;2023-03-01T02:03:43;3.10;;;2.10;;
33150;SDS011;19508;42.578;23.416;2023-03-01T02:06:12;3.78;;;1.70;;
33150;SDS011;19508;42.578;23.416;2023-03-01T02:08:44;2.72;;;2.05;;
33150;SDS011;19508;42.578;23.416;2023-03-01T02:11:11;2.65;;;2.15;;
33150;SDS011;19508;42.578;23.416;2023-03-01T02:13:40;2.83;;;2.53;;
33150;SDS011;19508;42.578;23.416;2023-03-01T02:16:12;2.97;;;2.40;;
33150;SDS011;19508;42.578;23.416;2023-03-01T02:18:40;3.72;;;2.78;;
33150;SDS011;19508;42.578;23.416;2023-03-01T02:23:51;3.60;;;2.60;;
33150;SDS011;19508;42.578;23.416;2023-03-01T02:26:25;4.50;;;3.30;;
33150;SDS011;19508;42.578;23.416;2023-03-01T02:28:56;3.75;;;2.72;;
33150;SDS011;19508;42.578;23.416;2023-03-01T02:31:22;3.70;;;3.25;;
33150;SDS011;19508;42.578;23.416;2023-03-01T02:34:13;4.38;;;3.55;;
33150;SDS011;19508;42.578;23.416;2023-03-01T02:37:11;5.88;;;2.67;;
33150;SDS011;19508;42.578;23.416;2023-03-01T02:39:45;3.88;;;3.15;;
33150;SDS011;19508;42.578;23.416;2023-03-01T02:42:18;5.15;;;3.30;;
33150;SDS011;19508;42.578;23.416;2023-03-01T02:44:48;5.53;;;3.80;;
33150;SDS011;19508;42.578;23.416;2023-03-01T02:47:14;5.68;;;3.92;;
33150;SDS011;19508;42.578;23.416;2023-03-01T02:49:40;8.13;;;4.60;;
33150;SDS011;19508;42.578;23.416;2023-03-01T02:52:27;5.95;;;4.22;;
33150;SDS011;19508;42.578;23.416;2023-03-01T02:55:16;4.85;;;3.90;;
33150;SDS011;19508;42.578;23.416;2023-03-01T02:57:44;5.45;;;3.30;;
33150;SDS011;19508;42.578;23.416;2023-03-01T03:00:17;5.57;;;3.70;;
33150;SDS011;19508;42.578;23.416;2023-03-01T03:02:49;6.18;;;4.53;;
33150;SDS011;19508;42.578;23.416;2023-03-01T03:05:18;5.45;;;3.47;;
33150;SDS011;19508;42.578;23.416;2023-03-01T03:10:25;5.28;;;3.78;;
33150;SDS011;19508;42.578;23.416;2023-03-01T03:12:58;4.70;;;3.85;;
33150;SDS011;19508;42.578;23.416;2023-03-01T03:15:26;7.40;;;4.22;;
33150;SDS011;19508;42.578;23.416;2023-03-01T03:17:54;5.55;;;4.05;;
33150;SDS011;19508;42.578;23.416;2023-03-01T03:20:20;6.40;;;4.28;;
33150;SDS011;19508;42.578;23.416;2023-03-01T03:22:49;4.93;;;4.05;;
33150;SDS011;19508;42.578;23.416;2023-03-01T03:25:16;6.55;;;4.10;;
33150;SDS011;19508;42.578;23.416;2023-03-01T03:27:43;5.78;;;4.32;;
33150;SDS011;19508;42.578;23.416;2023-03-01T03:30:10;6.18;;;4.13;;
33150;SDS011;19508;42.578;23.416;2023-03-01T03:32:42;7.85;;;4.88;;
33150;SDS011;19508;42.578;23.416;2023-03-01T03:35:17;23.33;;;11.00;;
33150;SDS011;19508;42.578;23.416;2023-03-01T03:37:44;8.30;;;5.80;;
33150;SDS011;19508;42.578;23.416;2023-03-01T03:40:29;5.45;;;3.90;;
33150;SDS011;19508;42.578;23.416;2023-03-01T03:42:56;4.75;;;3.67;;
33150;SDS011;19508;42.578;23.416;2023-03-01T03:45:22;7.47;;;4.45;;
33150;SDS011;19508;42.578;23.416;2023-03-01T03:47:48;7.63;;;4.88;;
33150;SDS011;19508;42.578;23.416;2023-03-01T03:50:14;6.63;;;4.88;;
33150;SDS011;19508;42.578;23.416;2023-03-01T03:52:40;4.97;;;3.60;;
33150;SDS011;19508;42.578;23.416;2023-03-01T03:55:07;4.95;;;3.55;;
33150;SDS011;19508;42.578;23.416;2023-03-01T03:57:39;5.25;;;4.35;;
33150;SDS011;19508;42.578;23.416;2023-03-01T04:00:07;6.32;;;4.15;;
33150;SDS011;19508;42.578;23.416;2023-03-01T04:02:42;7.50;;;4.15;;
33150;SDS011;19508;42.578;23.416;2023-03-01T04:05:09;7.28;;;4.60;;
33150;SDS011;19508;42.578;23.416;2023-03-01T04:07:37;5.07;;;3.70;;
33150;SDS011;19508;42.578;23.416;2023-03-01T04:10:07;5.93;;;4.03;;
33150;SDS011;19508;42.578;23.416;2023-03-01T04:12:35;5.28;;;3.83;;
33150;SDS011;19508;42.578;23.416;2023-03-01T04:15:01;5.75;;;4.53;;
33150;SDS011;19508;42.578;23.416;2023-03-01T04:17:37;10.88;;;4.57;;
33150;SDS011;19508;42.578;23.416;2023-03-01T04:20:07;11.15;;;5.80;;
33150;SDS011;19508;42.578;23.416;2023-03-01T04:22:37;12.45;;;7.82;;
33150;SDS011;19508;42.578;23.416;2023-03-01T04:25:03;16.27;;;7.88;;
33150;SDS011;19508;42.578;23.416;2023-03-01T04:27:31;11.60;;;7.05;;
33150;SDS011;19508;42.578;23.416;2023-03-01T04:29:59;11.70;;;5.00;;
33150;SDS011;19508;42.578;23.416;2023-03-01T04:32:25;7.50;;;5.38;;
33150;SDS011;19508;42.578;23.416;2023-03-01T04:34:50;7.78;;;5.13;;
33150;SDS011;19508;42.578;23.416;2023-03-01T04:37:16;8.82;;;5.25;;
33150;SDS011;19508;42.578;23.416;2023-03-01T04:39:41;10.48;;;6.28;;
33150;SDS011;19508;42.578;23.416;2023-03-01T04:42:11;11.50;;;6.63;;
33150;SDS011;19508;42.578;23.416;2023-03-01T04:44:37;8.88;;;6.18;;
33150;SDS011;19508;42.578;23.416;2023-03-01T04:47:02;8.32;;;4.95;;
33150;SDS011;19508;42.578;23.416;2023-03-01T04:49:28;11.00;;;6.93;;
33150;SDS011;19508;42.578;23.416;2023-03-01T04:51:53;9.02;;;6.20;;
33150;SDS011;19508;42.578;23.416;2023-03-01T04:54:19;9.40;;;5.88;;
33150;SDS011;19508;42.578;23.416;2023-03-01T04:56:44;9.25;;;4.75;;
33150;SDS011;19508;42.578;23.416;2023-03-01T04:59:10;6.57;;;4.30;;
33150;SDS011;19508;42.578;23.416;2023-03-01T05:01:37;10.75;;;5.85;;
33150;SDS011;19508;42.578;23.416;2023-03-01T05:04:02;7.80;;;5.50;;
33150;SDS011;19508;42.578;23.416;2023-03-01T05:06:30;12.23;;;6.65;;
33150;SDS011;19508;42.578;23.416;2023-03-01T05:08:56;14.50;;;8.93;;
33150;SDS011;19508;42.578;23.416;2023-03-01T05:11:21;10.73;;;6.95;;
33150;SDS011;19508;42.578;23.416;2023-03-01T05:13:47;9.35;;;6.82;;
33150;SDS011;19508;42.578;23.416;2023-03-01T05:16:14;10.57;;;8.13;;
33150;SDS011;19508;42.578;23.416;2023-03-01T05:18:41;8.07;;;6.18;;
33150;SDS011;19508;42.578;23.416;2023-03-01T05:21:11;8.23;;;5.28;;
33150;SDS011;19508;42.578;23.416;2023-03-01T05:23:40;8.75;;;4.60;;
33150;SDS011;19508;42.578;23.416;2023-03-01T05:26:06;5.55;;;4.00;;
33150;SDS011;19508;42.578;23.416;2023-03-01T05:28:32;5.85;;;4.25;;
33150;SDS011;19508;42.578;23.416;2023-03-01T05:30:57;7.50;;;4.40;;
33150;SDS011;19508;42.578;23.416;2023-03-01T05:33:23;20.75;;;12.55;;
33150;SDS011;19508;42.578;23.416;2023-03-01T05:35:50;8.27;;;4.82;;
33150;SDS011;19508;42.578;23.416;2023-03-01T05:38:17;18.23;;;9.55;;
33150;SDS011;19508;42.578;23.416;2023-03-01T05:40:43;9.10;;;5.75;;
33150;SDS011;19508;42.578;23.416;2023-03-01T05:43:10;8.82;;;4.10;;
33150;SDS011;19508;42.578;23.416;2023-03-01T05:45:37;4.55;;;3.55;;
33150;SDS011;19508;42.578;23.416;2023-03-01T05:48:04;5.40;;;3.28;;
33150;SDS011;19508;42.578;23.416;2023-03-01T05:50:32;6.18;;;3.72;;
33150;SDS011;19508;42.578;23.416;2023-03-01T05:55:32;5.68;;;2.90;;
33150;SDS011;19508;42.578;23.416;2023-03-01T05:58:00;3.47;;;3.05;;
33150;SDS011;19508;42.578;23.416;2023-03-01T06:00:29;5.57;;;3.70;;
33150;SDS011;19508;42.578;23.416;2023-03-01T06:02:56;4.80;;;3.33;;
33150;SDS011;19508;42.578;23.416;2023-03-01T06:05:22;6.18;;;3.88;;
33150;SDS011;19508;42.578;23.416;2023-03-01T06:07:48;3.92;;;2.78;;
33150;SDS011;19508;42.578;23.416;2023-03-01T06:10:18;3.45;;;2.70;;
33150;SDS011;19508;42.578;23.416;2023-03-01T06:12:44;3.45;;;2.30;;
33150;SDS011;19508;42.578;23.416;2023-03-01T06:15:11;3.83;;;2.67;;
33150;SDS011;19508;42.578;23.416;2023-03-01T06:17:39;5.18;;;3.42;;
33150;SDS011;19508;42.578;23.416;2023-03-01T06:20:25;6.05;;;2.88;;
33150;SDS011;19508;42.578;23.416;2023-03-01T06:22:52;3.60;;;2.47;;
33150;SDS011;19508;42.578;23.416;2023-03-01T06:25:24;4.18;;;2.63;;
33150;SDS011;19508;42.578;23.416;2023-03-01T06:27:51;4.95;;;3.45;;
33150;SDS011;19508;42.578;23.416;2023-03-01T06:30:20;6.43;;;2.67;;
33150;SDS011;19508;42.578;23.416;2023-03-01T06:32:48;7.28;;;3.00;;
33150;SDS011;19508;42.578;23.416;2023-03-01T06:35:14;7.63;;;3.80;;
33150;SDS011;19508;42.578;23.416;2023-03-01T06:37:44;8.95;;;4.35;;
33150;SDS011;19508;42.578;23.416;2023-03-01T06:40:10;7.57;;;4.75;;
33150;SDS011;19508;42.578;23.416;2023-03-01T06:42:36;11.05;;;6.78;;
33150;SDS011;19508;42.578;23.416;2023-03-01T06:45:04;5.30;;;3.25;;
33150;SDS011;19508;42.578;23.416;2023-03-01T06:47:31;3.28;;;2.72;;
33150;SDS011;19508;42.578;23.416;2023-03-01T06:49:58;2.50;;;1.75;;
33150;SDS011;19508;42.578;23.416;2023-03-01T06:52:24;2.10;;;1.90;;
33150;SDS011;19508;42.578;23.416;2023-03-01T06:54:49;4.70;;;2.03;;
33150;SDS011;19508;42.578;23.416;2023-03-01T06:57:14;9.52;;;5.75;;
33150;SDS011;19508;42.578;23.416;2023-03-01T06:59:40;6.05;;;3.67;;
33150;SDS011;19508;42.578;23.416;2023-03-01T07:02:05;5.63;;;4.10;;
33150;SDS011;19508;42.578;23.416;2023-03-01T07:04:31;3.00;;;2.10;;
33150;SDS011;19508;42.578;23.416;2023-03-01T07:06:56;2.47;;;2.28;;
33150;SDS011;19508;42.578;23.416;2023-03-01T07:09:23;3.60;;;2.28;;
33150;SDS011;19508;42.578;23.416;2023-03-01T07:11:49;2.45;;;2.10;;
33150;SDS011;19508;42.578;23.416;2023-03-01T07:14:15;3.72;;;2.42;;
33150;SDS011;19508;42.578;23.416;2023-03-01T07:16:40;6.57;;;2.97;;
33150;SDS011;19508;42.578;23.416;2023-03-01T07:19:06;3.17;;;2.38;;
33150;SDS011;19508;42.578;23.416;2023-03-01T07:21:31;3.30;;;2.78;;
33150;SDS011;19508;42.578;23.416;2023-03-01T07:23:57;3.10;;;2.13;;
33150;SDS011;19508;42.578;23.416;2023-03-01T07:26:22;3.90;;;2.30;;
33150;SDS011;19508;42.578;23.416;2023-03-01T07:28:48;4.07;;;2.97;;
33150;SDS011;19508;42.578;23.416;2023-03-01T07:31:13;2.50;;;2.28;;
33150;SDS011;19508;42.578;23.416;2023-03-01T07:33:39;4.60;;;2.90;;
33150;SDS011;19508;42.578;23.416;2023-03-01T07:36:04;6.13;;;4.50;;
33150;SDS011;19508;42.578;23.416;2023-03-01T07:38:31;3.58;;;3.05;;
33150;SDS011;19508;42.578;23.416;2023-03-01T07:41:00;4.45;;;3.25;;
33150;SDS011;19508;42.578;23.416;2023-03-01T07:43:27;9.05;;;5.63;;
33150;SDS011;19508;42.578;23.416;2023-03-01T07:45:53;4.70;;;2.53;;
33150;SDS011;19508;42.578;23.416;2023-03-01T07:48:19;5.43;;;4.20;;
33150;SDS011;19508;42.578;23.416;2023-03-01T07:50:44;7.72;;;4.68;;
33150;SDS011;19508;42.578;23.416;2023-03-01T07:53:10;9.40;;;5.03;;
33150;SDS011;19508;42.578;23.416;2023-03-01T07:55:35;7.03;;;4.15;;
33150;SDS011;19508;42.578;23.416;2023-03-01T07:58:01;4.85;;;3.45;;
33150;SDS011;19508;42.578;23.416;2023-03-01T08:00:27;4.72;;;3.28;;
33150;SDS011;19508;42.578;23.416;2023-03-01T08:02:52;8.70;;;4.70;;
33150;SDS011;19508;42.578;23.416;2023-03-01T08:05:18;13.90;;;8.77;;
33150;SDS011;19508;42.578;23.416;2023-03-01T08:07:43;9.85;;;6.88;;
33150;SDS011;19508;42.578;23.416;2023-03-01T08:10:09;6.13;;;4.15;;
33150;SDS011;19508;42.578;23.416;2023-03-01T08:12:35;5.68;;;4.07;;
33150;SDS011;19508;42.578;23.416;2023-03-01T08:15:00;6.90;;;4.80;;
33150;SDS011;19508;42.578;23.416;2023-03-01T08:17:26;5.07;;;3.58;;
33150;SDS011;19508;42.578;23.416;2023-03-01T08:19:51;8.25;;;5.50;;
33150;SDS011;19508;42.578;23.416;2023-03-01T08:22:16;10.20;;;6.10;;
33150;SDS011;19508;42.578;23.416;2023-03-01T08:24:42;14.15;;;8.77;;
33150;SDS011;19508;42.578;23.416;2023-03-01T08:27:07;9.75;;;5.88;;
33150;SDS011;19508;42.578;23.416;2023-03-01T08:29:33;5.82;;;3.50;;
33150;SDS011;19508;42.578;23.416;2023-03-01T08:31:59;7.00;;;4.40;;
33150;SDS011;19508;42.578;23.416;2023-03-01T08:34:25;5.05;;;3.83;;
33150;SDS011;19508;42.578;23.416;2023-03-01T08:36:50;4.15;;;3.08;;
33150;SDS011;19508;42.578;23.416;2023-03-01T08:39:18;3.58;;;2.53;;
33150;SDS011;19508;42.578;23.416;2023-03-01T08:41:45;5.65;;;3.40;;
33150;SDS011;19508;42.578;23.416;2023-03-01T08:44:11;3.85;;;2.95;;
33150;SDS011;19508;42.578;23.416;2023-03-01T08:46:38;2.78;;;2.45;;
33150;SDS011;19508;42.578;23.416;2023-03-01T08:49:06;3.58;;;2.60;;
33150;SDS011;19508;42.578;23.416;2023-03-01T08:51:36;1.95;;;1.67;;
33150;SDS011;19508;42.578;23.416;2023-03-01T08:54:02;5.07;;;3.28;;
33150;SDS011;19508;42.578;23.416;2023-03-01T08:56:29;3.28;;;2.30;;
33150;SDS011;19508;42.578;23.416;2023-03-01T08:58:54;4.72;;;2.83;;
33150;SDS011;19508;42.578;23.416;2023-03-01T09:01:19;2.25;;;2.05;;
33150;SDS011;19508;42.578;23.416;2023-03-01T09:03:45;3.05;;;2.10;;
33150;SDS011;19508;42.578;23.416;2023-03-01T09:06:11;5.80;;;3.17;;
33150;SDS011;19508;42.578;23.416;2023-03-01T09:08:37;4.03;;;3.30;;
33150;SDS011;19508;42.578;23.416;2023-03-01T09:11:05;5.30;;;3.30;;
33150;SDS011;19508;42.578;23.416;2023-03-01T09:13:31;5.32;;;3.08;;
33150;SDS011;19508;42.578;23.416;2023-03-01T09:15:57;7.22;;;4.45;;
33150;SDS011;19508;42.578;23.416;2023-03-01T09:18:24;7.93;;;4.05;;
33150;SDS011;19508;42.578;23.416;2023-03-01T09:20:49;5.70;;;3.53;;
33150;SDS011;19508;42.578;23.416;2023-03-01T09:23:14;26.90;;;12.70;;
33150;SDS011;19508;42.578;23.416;2023-03-01T09:25:40;34.38;;;12.35;;
33150;SDS011;19508;42.578;23.416;2023-03-01T09:28:05;45.47;;;16.17;;
33150;SDS011;19508;42.578;23.416;2023-03-01T09:30:31;16.15;;;6.30;;
33150;SDS011;19508;42.578;23.416;2023-03-01T09:32:57;11.13;;;5.78;;
33150;SDS011;19508;42.578;23.416;2023-03-01T09:35:22;5.40;;;3.17;;
33150;SDS011;19508;42.578;23.416;2023-03-01T09:37:48;11.23;;;6.85;;
33150;SDS011;19508;42.578;23.416;2023-03-01T09:40:16;12.38;;;6.22;;
33150;SDS011;19508;42.578;23.416;2023-03-01T09:48:03;20.05;;;9.30;;
33150;SDS011;19508;42.578;23.416;2023-03-01T09:50:39;14.40;;;7.88;;
33150;SDS011;19508;42.578;23.416;2023-03-01T09:53:13;10.63;;;6.20;;
33150;SDS011;19508;42.578;23.416;2023-03-01T10:00:54;8.80;;;5.50;;
33150;SDS011;19508;42.578;23.416;2023-03-01T10:03:26;10.07;;;4.05;;
33150;SDS011;19508;42.578;23.416;2023-03-01T10:08:28;7.15;;;4.85;;
33150;SDS011;19508;42.578;23.416;2023-03-01T10:11:01;8.20;;;5.47;;
33150;SDS011;19508;42.578;23.416;2023-03-01T10:18:59;11.43;;;7.97;;
33150;SDS011;19508;42.578;23.416;2023-03-01T10:21:27;9.50;;;5.88;;
33150;SDS011;19508;42.578;23.416;2023-03-01T10:23:56;7.47;;;4.85;;
33150;SDS011;19508;42.578;23.416;2023-03-01T10:26:39;15.38;;;9.18;;
33150;SDS011;19508;42.578;23.416;2023-03-01T10:29:12;9.98;;;5.05;;
33150;SDS011;19508;42.578;23.416;2023-03-01T10:31:45;9.32;;;6.28;;
33150;SDS011;19508;42.578;23.416;2023-03-01T10:34:17;8.15;;;5.15;;
33150;SDS011;19508;42.578;23.416;2023-03-01T10:36:44;9.07;;;4.35;;
33150;SDS011;19508;42.578;23.416;2023-03-01T10:39:14;5.65;;;3.60;;
33150;SDS011;19508;42.578;23.416;2023-03-01T10:41:54;5.93;;;3.97;;
33150;SDS011;19508;42.578;23.416;2023-03-01T10:44:44;7.45;;;4.40;;
33150;SDS011;19508;42.578;23.416;2023-03-01T10:47:33;6.43;;;4.47;;
33150;SDS011;19508;42.578;23.416;2023-03-01T10:49:58;6.00;;;4.13;;
33150;SDS011;19508;42.578;23.416;2023-03-01T10:52:35;5.13;;;3.25;;
33150;SDS011;19508;42.578;23.416;2023-03-01T10:55:04;6.10;;;3.83;;
33150;SDS011;19508;42.578;23.416;2023-03-01T10:57:49;5.65;;;3.80;;
33150;SDS011;19508;42.578;23.416;2023-03-01T11:00:23;6.90;;;5.03;;
33150;SDS011;19508;42.578;23.416;2023-03-01T11:03:08;7.90;;;5.18;;
33150;SDS011;19508;42.578;23.416;2023-03-01T11:05:37;5.32;;;4.10;;
33150;SDS011;19508;42.578;23.416;2023-03-01T11:08:25;7.57;;;4.45;;
33150;SDS011;19508;42.578;23.416;2023-03-01T11:13:53;4.70;;;3.65;;
33150;SDS011;19508;42.578;23.416;2023-03-01T11:16:28;11.20;;;5.07;;
33150;SDS011;19508;42.578;23.416;2023-03-01T11:21:35;7.82;;;5.50;;
33150;SDS011;19508;42.578;23.416;2023-03-01T11:24:17;9.27;;;6.20;;
33150;SDS011;19508;42.578;23.416;2023-03-01T11:26:45;7.97;;;6.10;;
33150;SDS011;19508;42.578;23.416;2023-03-01T11:29:35;6.70;;;4.68;;
33150;SDS011;19508;42.578;23.416;2023-03-01T11:32:07;10.13;;;5.72;;
33150;SDS011;19508;42.578;23.416;2023-03-01T11:34:39;6.18;;;4.55;;
33150;SDS011;19508;42.578;23.416;2023-03-01T11:37:21;8.82;;;3.85;;
33150;SDS011;19508;42.578;23.416;2023-03-01T11:39:55;7.07;;;4.20;;
33150;SDS011;19508;42.578;23.416;2023-03-01T11:42:51;9.50;;;4.40;;
33150;SDS011;19508;42.578;23.416;2023-03-01T11:45:19;4.95;;;3.53;;
33150;SDS011;19508;42.578;23.416;2023-03-01T11:47:59;5.20;;;4.25;;
33150;SDS011;19508;42.578;23.416;2023-03-01T11:50:39;5.38;;;3.60;;
33150;SDS011;19508;42.578;23.416;2023-03-01T12:18:34;6.60;;;3.70;;
33150;SDS011;19508;42.578;23.416;2023-03-01T12:26:40;8.80;;;5.25;;
33150;SDS011;19508;42.578;23.416;2023-03-01T12:32:15;8.43;;;6.30;;
33150;SDS011;19508;42.578;23.416;2023-03-01T12:48:46;17.90;;;10.55;;
33150;SDS011;19508;42.578;23.416;2023-03-01T12:51:24;20.83;;;10.50;;
33150;SDS011;19508;42.578;23.416;2023-03-01T12:53:54;18.35;;;10.15;;
33150;SDS011;19508;42.578;23.416;2023-03-01T12:56:27;12.77;;;8.60;;
33150;SDS011;19508;42.578;23.416;2023-03-01T13:07:10;8.77;;;5.97;;
33150;SDS011;19508;42.578;23.416;2023-03-01T13:09:48;8.77;;;5.55;;
33150;SDS011;19508;42.578;23.416;2023-03-01T13:13:01;10.45;;;4.57;;
33150;SDS011;19508;42.578;23.416;2023-03-01T13:15:47;10.27;;;5.40;;
33150;SDS011;19508;42.578;23.416;2023-03-01T13:23:07;7.65;;;4.88;;
33150;SDS011;19508;42.578;23.416;2023-03-01T13:25:50;5.80;;;4.30;;
33150;SDS011;19508;42.578;23.416;2023-03-01T13:33:47;7.47;;;4.95;;
33150;SDS011;19508;42.578;23.416;2023-03-01T13:46:49;9.02;;;5.30;;
33150;SDS011;19508;42.578;23.416;2023-03-01T13:49:33;9.45;;;5.68;;
33150;SDS011;19508;42.578;23.416;2023-03-01T13:52:13;7.80;;;5.25;;
33150;SDS011;19508;42.578;23.416;2023-03-01T13:54:48;14.50;;;5.88;;
33150;SDS011;19508;42.578;23.416;2023-03-01T13:57:18;9.30;;;5.40;;
33150;SDS011;19508;42.578;23.416;2023-03-01T13:59:49;11.00;;;5.32;;
33150;SDS011;19508;42.578;23.416;2023-03-01T14:02:15;6.60;;;3.92;;
33150;SDS011;19508;42.578;23.416;2023-03-01T14:04:41;6.78;;;4.55;;
33150;SDS011;19508;42.578;23.416;2023-03-01T14:09:35;8.00;;;5.18;;
33150;SDS011;19508;42.578;23.416;2023-03-01T14:15:04;19.92;;;10.15;;
33150;SDS011;19508;42.578;23.416;2023-03-01T14:22:46;27.70;;;12.60;;
33150;SDS011;19508;42.578;23.416;2023-03-01T14:25:31;7.13;;;4.78;;
33150;SDS011;19508;42.578;23.416;2023-03-01T14:28:00;21.95;;;11.85;;
33150;SDS011;19508;42.578;23.416;2023-03-01T14:30:33;11.90;;;7.85;;
33150;SDS011;19508;42.578;23.416;2023-03-01T14:33:06;12.10;;;7.22;;
33150;SDS011;19508;42.578;23.416;2023-03-01T14:35:51;8.55;;;4.43;;
33150;SDS011;19508;42.578;23.416;2023-03-01T14:38:44;9.23;;;4.82;;
33150;SDS011;19508;42.578;23.416;2023-03-01T14:46:43;6.65;;;4.00;;
33150;SDS011;19508;42.578;23.416;2023-03-01T14:49:17;8.10;;;4.90;;
33150;SDS011;19508;42.578;23.416;2023-03-01T14:54:25;10.30;;;5.00;;
33150;SDS011;19508;42.578;23.416;2023-03-01T14:57:05;8.68;;;5.47;;
33150;SDS011;19508;42.578;23.416;2023-03-01T14:59:32;11.50;;;6.43;;
33150;SDS011;19508;42.578;23.416;2023-03-01T15:01:58;15.13;;;4.80;;
33150;SDS011;19508;42.578;23.416;2023-03-01T15:04:25;8.00;;;5.07;;
33150;SDS011;19508;42.578;23.416;2023-03-01T15:06:55;6.97;;;4.47;;
33150;SDS011;19508;42.578;23.416;2023-03-01T15:09:29;7.38;;;4.75;;
33150;SDS011;19508;42.578;23.416;2023-03-01T15:11:57;7.97;;;5.00;;
33150;SDS011;19508;42.578;23.416;2023-03-01T15:14:39;8.73;;;5.55;;
33150;SDS011;19508;42.578;23.416;2023-03-01T15:17:15;11.55;;;5.60;;
33150;SDS011;19508;42.578;23.416;2023-03-01T15:19:50;9.52;;;5.80;;
33150;SDS011;19508;42.578;23.416;2023-03-01T15:22:16;9.88;;;7.07;;
33150;SDS011;19508;42.578;23.416;2023-03-01T15:24:45;7.82;;;5.20;;
33150;SDS011;19508;42.578;23.416;2023-03-01T15:27:14;15.90;;;6.72;;
33150;SDS011;19508;42.578;23.416;2023-03-01T15:29:57;8.52;;;5.07;;
33150;SDS011;19508;42.578;23.416;2023-03-01T15:32:29;21.17;;;11.40;;
33150;SDS011;19508;42.578;23.416;2023-03-01T15:40:26;71.95;;;22.65;;
33150;SDS011;19508;42.578;23.416;2023-03-01T15:43:05;19.33;;;7.93;;
33150;SDS011;19508;42.578;23.416;2023-03-01T15:45:32;72.85;;;19.90;;
33150;SDS011;19508;42.578;23.416;2023-03-01T15:48:04;33.53;;;10.65;;
33150;SDS011;19508;42.578;23.416;2023-03-01T15:50:57;16.27;;;5.70;;
33150;SDS011;19508;42.578;23.416;2023-03-01T15:53:24;19.10;;;5.90;;
33150;SDS011;19508;42.578;23.416;2023-03-01T15:55:52;21.52;;;7.50;;
33150;SDS011;19508;42.578;23.416;2023-03-01T15:58:18;61.55;;;25.00;;
33150;SDS011;19508;42.578;23.416;2023-03-01T16:00:46;46.22;;;19.13;;
33150;SDS011;19508;42.578;23.416;2023-03-01T16:03:13;16.58;;;7.45;;
33150;SDS011;19508;42.578;23.416;2023-03-01T16:05:39;13.10;;;7.25;;
33150;SDS011;19508;42.578;23.416;2023-03-01T16:08:05;9.13;;;6.05;;
33150;SDS011;19508;42.578;23.416;2023-03-01T16:10:32;11.75;;;6.20;;
33150;SDS011;19508;42.578;23.416;2023-03-01T16:12:58;12.18;;;5.97;;
33150;SDS011;19508;42.578;23.416;2023-03-01T16:15:31;15.00;;;6.32;;
33150;SDS011;19508;42.578;23.416;2023-03-01T16:17:59;9.07;;;5.20;;
33150;SDS011;19508;42.578;23.416;2023-03-01T16:20:25;14.63;;;5.97;;
33150;SDS011;19508;42.578;23.416;2023-03-01T16:22:51;9.57;;;5.15;;
33150;SDS011;19508;42.578;23.416;2023-03-01T16:25:18;11.25;;;6.05;;
33150;SDS011;19508;42.578;23.416;2023-03-01T16:27:45;10.30;;;4.88;;
33150;SDS011;19508;42.578;23.416;2023-03-01T16:30:13;13.25;;;7.32;;
33150;SDS011;19508;42.578;23.416;2023-03-01T16:32:40;8.32;;;5.35;;
33150;SDS011;19508;42.578;23.416;2023-03-01T16:35:06;12.93;;;5.93;;
33150;SDS011;19508;42.578;23.416;2023-03-01T16:37:33;7.68;;;4.28;;
33150;SDS011;19508;42.578;23.416;2023-03-01T16:39:58;9.13;;;4.95;;
33150;SDS011;19508;42.578;23.416;2023-03-01T16:42:24;7.03;;;3.92;;
33150;SDS011;19508;42.578;23.416;2023-03-01T16:44:56;9.98;;;4.72;;
33150;SDS011;19508;42.578;23.416;2023-03-01T16:47:23;7.93;;;5.07;;
33150;SDS011;19508;42.578;23.416;2023-03-01T16:49:52;10.15;;;5.50;;
33150;SDS011;19508;42.578;23.416;2023-03-01T16:52:17;10.95;;;5.40;;
33150;SDS011;19508;42.578;23.416;2023-03-01T16:54:43;9.27;;;5.47;;
33150;SDS011;19508;42.578;23.416;2023-03-01T16:57:08;48.33;;;16.45;;
33150;SDS011;19508;42.578;23.416;2023-03-01T16:59:34;39.38;;;12.23;;